»·PEaware :: SWA462 KSEA-KEUG

SWA462 :: KSEA-KEUG

FLIGHT INFORMATION

Flight Status: Arrived
Operator:
Southwest Airlines
More flights by this operator :: More flights under this callsign
Pilot: Steve F. (26981)
Aircraft: BOEING 737-900
(B739)
More flights by this aircraft type
Origin: KSEA Seattle-Tacoma Intl
United States
Destination: KEUG Mahlon Sweet
United States
More flights between these airports :: More routes between these airports
Route: HAROB6 FEPOT CVO
File this flight plan on PilotEdge
Remarks:
Altitude:
(Current/Filed)
29,000ft
Speed:
(Current/Filed)
430kts
Departed: 24-Jun-23 08:36 AM
Arrived: 24-Jun-23 09:21 AM
Distance/Time
Traveled:
203nm/0:45
Distance/Time
To Go:
Arrived

Flight Plot

Page will automatically refresh every two minutes.

Flight plan parsing failed; only flown route is shown


Map Options




Map Legend


Flown Route
Filed Route
Departure Airport
Arrival Airport
Navaid (VOR, NDB)
Fix

Horizontal Profiles

Position Reports

Time Latitude Longitude Heading Altitude Ground
Speed
24-Jun-23 08:16 47.440860 -122.303061 279 441ft 0kts
24-Jun-23 08:17 47.440860 -122.303061 279 441ft 0kts
24-Jun-23 08:18 47.440860 -122.303061 279 441ft 0kts
24-Jun-23 08:19 47.440860 -122.303061 279 441ft 0kts
24-Jun-23 08:20 47.440860 -122.303061 279 441ft 0kts
24-Jun-23 08:21 47.440860 -122.303061 279 441ft 0kts
24-Jun-23 08:22 47.440860 -122.303061 279 441ft 0kts
24-Jun-23 08:23 47.440860 -122.303061 279 441ft 0kts
24-Jun-23 08:24 47.440860 -122.303061 279 441ft 0kts
24-Jun-23 08:25 47.440860 -122.303061 279 441ft 0kts
24-Jun-23 08:26 47.440827 -122.302786 279 441ft 2kts
24-Jun-23 08:27 47.440941 -122.302260 174 441ft 0kts
24-Jun-23 08:28 47.440941 -122.302260 174 441ft 0kts
24-Jun-23 08:29 47.440933 -122.302259 174 441ft 1kts
24-Jun-23 08:30 47.439682 -122.305543 271 441ft 13kts
24-Jun-23 08:31 47.444500 -122.306176 359 441ft 22kts
24-Jun-23 08:32 47.451868 -122.306166 359 441ft 26kts
24-Jun-23 08:33 47.459376 -122.306161 0 441ft 28kts
24-Jun-23 08:34 47.463436 -122.306577 276 441ft 0kts
24-Jun-23 08:35 47.459779 -122.307773 180 441ft 77kts
24-Jun-23 08:36 47.415037 -122.308278 182 2134ft 194kts
24-Jun-23 08:37 47.357372 -122.312068 179 4236ft 232kts
24-Jun-23 08:38 47.311451 -122.369190 261 7020ft 253kts
24-Jun-23 08:39 47.307817 -122.481322 274 9834ft 284kts
24-Jun-23 08:40 47.311871 -122.603097 271 12350ft 321kts
24-Jun-23 08:41 47.314003 -122.750493 264 13697ft 386kts
24-Jun-23 08:42 47.280514 -122.903459 248 16313ft 403kts
24-Jun-23 08:43 47.228469 -123.052390 227 18643ft 422kts
24-Jun-23 08:44 47.134176 -123.160700 216 20720ft 438kts
24-Jun-23 08:45 47.020258 -123.222059 182 22496ft 450kts
24-Jun-23 08:46 46.893483 -123.225164 179 24033ft 461kts
24-Jun-23 08:47 46.763934 -123.228516 180 25421ft 471kts
24-Jun-23 08:48 46.631817 -123.232407 180 26889ft 473kts
24-Jun-23 08:49 46.499279 -123.236344 180 27821ft 485kts
24-Jun-23 08:50 46.365234 -123.240313 180 29206ft 482kts
24-Jun-23 08:51 46.230966 -123.244274 180 29235ft 480kts
24-Jun-23 08:52 46.097387 -123.248189 180 29235ft 481kts
24-Jun-23 08:53 45.963679 -123.252075 180 29231ft 479kts
24-Jun-23 08:54 45.831096 -123.255947 180 29043ft 476kts
24-Jun-23 08:55 45.698616 -123.259782 180 27047ft 477kts
24-Jun-23 08:56 45.572380 -123.263417 181 25122ft 464kts
24-Jun-23 08:57 45.445327 -123.267058 181 23122ft 450kts
24-Jun-23 08:58 45.322212 -123.270574 181 21123ft 436kts
24-Jun-23 08:59 45.203854 -123.273946 181 18901ft 415kts
24-Jun-23 09:00 45.090425 -123.277152 181 16410ft 398kts
24-Jun-23 09:01 44.982432 -123.280187 181 14010ft 381kts
24-Jun-23 09:02 44.878994 -123.283048 180 12045ft 355kts
24-Jun-23 09:03 44.787958 -123.248170 160 10303ft 336kts
24-Jun-23 09:04 44.703932 -123.204650 160 9441ft 293kts
24-Jun-23 09:06 44.630273 -123.166950 160 8733ft 277kts
24-Jun-23 09:07 44.557816 -123.130000 160 8160ft 275kts
24-Jun-23 09:08 44.485999 -123.093440 160 7659ft 273kts
24-Jun-23 09:09 44.411246 -123.078938 176 7159ft 270kts
24-Jun-23 09:10 44.336657 -123.071069 175 6660ft 269kts
24-Jun-23 09:11 44.262315 -123.062290 175 6159ft 267kts
24-Jun-23 09:12 44.188631 -123.053438 175 5659ft 265kts
24-Jun-23 09:13 44.118114 -123.044963 175 5372ft 235kts
24-Jun-23 09:14 44.056205 -123.037553 175 5012ft 226kts
24-Jun-23 09:15 43.997396 -123.052113 217 3874ft 209kts
24-Jun-23 09:16 43.973907 -123.118733 267 2929ft 186kts
24-Jun-23 09:17 43.984882 -123.184718 314 2392ft 172kts
24-Jun-23 09:18 44.023319 -123.213208 338 2048ft 148kts
24-Jun-23 09:19 44.064452 -123.218343 1 1331ft 153kts
24-Jun-23 09:20 44.105586 -123.218682 0 528ft 142kts
24-Jun-23 09:21 44.129467 -123.219053 1 377ft 24kts
24-Jun-23 09:22 44.128484 -123.217245 177 377ft 12kts
24-Jun-23 09:23 44.123115 -123.216121 144 377ft 20kts
24-Jun-23 09:24 44.120299 -123.213669 212 377ft 3kts
24-Jun-23 09:25 44.120252 -123.213715 215 377ft 0kts
24-Jun-23 09:26 44.120252 -123.213715 215 377ft 0kts
24-Jun-23 09:27 44.120252 -123.213715 215 377ft 0kts
24-Jun-23 09:28 44.120252 -123.213715 215 377ft 0kts
24-Jun-23 09:29 44.120252 -123.213715 215 377ft 0kts
24-Jun-23 09:30 44.120252 -123.213715 215 377ft 0kts
24-Jun-23 09:31 44.120252 -123.213715 215 377ft 0kts
24-Jun-23 09:32 44.120252 -123.213715 215 377ft 0kts
24-Jun-23 09:33 44.120252 -123.213715 215 377ft 0kts
24-Jun-23 09:34 44.120252 -123.213715 215 377ft 0kts
24-Jun-23 09:35 44.120252 -123.213715 215 377ft 0kts

Navigation Log

Ident Type
Flight plan parsing failed, navigation log unavailable